sensor_id;sensor_type;location;lat;lon;timestamp;pressure;altitude;pressure_sealevel;temperature;humidity
44934;BME280;30667;43.614;1.442;2023-02-02T00:01:20;101674.25;;;5.61;100.00
44934;BME280;30667;43.614;1.442;2023-02-02T00:03:46;101674.25;;;5.61;100.00
44934;BME280;30667;43.614;1.442;2023-02-02T00:06:15;101673.63;;;5.59;100.00
44934;BME280;30667;43.614;1.442;2023-02-02T00:08:41;101673.22;;;5.62;100.00
44934;BME280;30667;43.614;1.442;2023-02-02T00:11:06;101668.88;;;5.61;100.00
44934;BME280;30667;43.614;1.442;2023-02-02T00:13:32;101673.84;;;5.64;100.00
44934;BME280;30667;43.614;1.442;2023-02-02T00:15:57;101670.75;;;5.67;100.00
44934;BME280;30667;43.614;1.442;2023-02-02T00:18:23;101667.47;;;5.72;100.00
44934;BME280;30667;43.614;1.442;2023-02-02T00:20:48;101671.56;;;5.68;100.00
44934;BME280;30667;43.614;1.442;2023-02-02T00:23:15;101671.56;;;5.68;100.00
44934;BME280;30667;43.614;1.442;2023-02-02T00:25:41;101669.94;;;5.67;100.00
44934;BME280;30667;43.614;1.442;2023-02-02T00:28:06;101673.03;;;5.70;100.00
44934;BME280;30667;43.614;1.442;2023-02-02T00:30:32;101674.69;;;5.71;100.00
44934;BME280;30667;43.614;1.442;2023-02-02T00:32:57;101676.94;;;5.68;100.00
44934;BME280;30667;43.614;1.442;2023-02-02T00:35:23;101669.91;;;5.60;100.00
44934;BME280;30667;43.614;1.442;2023-02-02T00:37:48;101671.16;;;5.64;100.00
44934;BME280;30667;43.614;1.442;2023-02-02T00:40:13;101674.91;;;5.70;100.00
44934;BME280;30667;43.614;1.442;2023-02-02T00:42:39;101669.31;;;5.71;100.00
44934;BME280;30667;43.614;1.442;2023-02-02T00:45:05;101673.03;;;5.70;100.00
44934;BME280;30667;43.614;1.442;2023-02-02T00:47:45;101676.13;;;5.74;100.00
44934;BME280;30667;43.614;1.442;2023-02-02T00:50:17;101674.50;;;5.73;100.00
44934;BME280;30667;43.614;1.442;2023-02-02T00:52:43;101672.63;;;5.67;100.00
44934;BME280;30667;43.614;1.442;2023-02-02T00:55:10;101660.22;;;5.66;100.00
44934;BME280;30667;43.614;1.442;2023-02-02T00:57:37;101659.59;;;5.63;100.00
44934;BME280;30667;43.614;1.442;2023-02-02T01:00:04;101651.75;;;5.69;100.00
44934;BME280;30667;43.614;1.442;2023-02-02T01:02:31;101658.13;;;5.68;100.00
44934;BME280;30667;43.614;1.442;2023-02-02T01:04:57;101659.59;;;5.70;100.00
44934;BME280;30667;43.614;1.442;2023-02-02T01:07:22;101662.91;;;5.66;100.00
44934;BME280;30667;43.614;1.442;2023-02-02T01:09:48;101659.59;;;5.70;100.00
44934;BME280;30667;43.614;1.442;2023-02-02T01:12:13;101662.50;;;5.69;100.00
44934;BME280;30667;43.614;1.442;2023-02-02T01:14:38;101661.69;;;5.75;100.00
44934;BME280;30667;43.614;1.442;2023-02-02T01:17:04;101665.38;;;5.74;100.00
44934;BME280;30667;43.614;1.442;2023-02-02T01:19:29;101662.91;;;5.72;100.00
44934;BME280;30667;43.614;1.442;2023-02-02T01:21:55;101674.91;;;5.70;100.00
44934;BME280;30667;43.614;1.442;2023-02-02T01:24:20;101661.47;;;5.70;100.00
44934;BME280;30667;43.614;1.442;2023-02-02T01:26:46;101653.81;;;5.67;100.00
44934;BME280;30667;43.614;1.442;2023-02-02T01:29:11;101657.94;;;5.69;100.00
44934;BME280;30667;43.614;1.442;2023-02-02T01:31:37;101658.78;;;5.70;100.00
44934;BME280;30667;43.614;1.442;2023-02-02T01:34:02;101648.88;;;5.70;100.00
44934;BME280;30667;43.614;1.442;2023-02-02T01:36:28;101656.31;;;5.68;100.00
44934;BME280;30667;43.614;1.442;2023-02-02T01:38:53;101656.91;;;5.63;100.00
44934;BME280;30667;43.614;1.442;2023-02-02T01:41:22;101648.22;;;5.61;100.00
44934;BME280;30667;43.614;1.442;2023-02-02T01:43:51;101651.34;;;5.65;100.00
44934;BME280;30667;43.614;1.442;2023-02-02T01:46:22;101650.50;;;5.58;100.00
44934;BME280;30667;43.614;1.442;2023-02-02T01:48:52;101643.69;;;5.62;100.00
44934;BME280;30667;43.614;1.442;2023-02-02T01:51:23;101646.16;;;5.57;100.00
44934;BME280;30667;43.614;1.442;2023-02-02T01:53:51;101651.31;;;5.58;100.00
44934;BME280;30667;43.614;1.442;2023-02-02T01:56:27;101652.16;;;5.59;100.00
44934;BME280;30667;43.614;1.442;2023-02-02T01:58:53;101650.28;;;5.53;100.00
44934;BME280;30667;43.614;1.442;2023-02-02T02:01:18;101645.13;;;5.51;100.00
44934;BME280;30667;43.614;1.442;2023-02-02T02:03:44;101638.28;;;5.49;100.00
44934;BME280;30667;43.614;1.442;2023-02-02T02:06:16;101628.59;;;5.41;100.00
44934;BME280;30667;43.614;1.442;2023-02-02T02:09:02;101641.38;;;5.39;100.00
44934;BME280;30667;43.614;1.442;2023-02-02T02:11:29;101631.22;;;5.34;100.00
44934;BME280;30667;43.614;1.442;2023-02-02T02:13:57;101627.31;;;5.23;100.00
44934;BME280;30667;43.614;1.442;2023-02-02T02:29:23;101610.50;;;4.95;100.00
44934;BME280;30667;43.614;1.442;2023-02-02T02:37:15;101595.97;;;4.76;100.00
44934;BME280;30667;43.614;1.442;2023-02-02T02:42:50;101600.28;;;4.77;100.00
44934;BME280;30667;43.614;1.442;2023-02-02T02:45:18;101597.78;;;4.68;100.00
44934;BME280;30667;43.614;1.442;2023-02-02T02:47:47;101589.75;;;4.68;100.00
44934;BME280;30667;43.614;1.442;2023-02-02T02:50:13;101596.50;;;4.58;100.00
44934;BME280;30667;43.614;1.442;2023-02-02T02:52:39;101590.31;;;4.57;100.00
44934;BME280;30667;43.614;1.442;2023-02-02T02:55:06;101598.13;;;4.52;100.00
44934;BME280;30667;43.614;1.442;2023-02-02T03:05:21;101589.16;;;4.31;100.00
44934;BME280;30667;43.614;1.442;2023-02-02T03:10:28;101596.13;;;4.26;100.00
44934;BME280;30667;43.614;1.442;2023-02-02T03:12:55;101596.31;;;4.24;100.00
44934;BME280;30667;43.614;1.442;2023-02-02T03:15:21;101591.34;;;4.21;100.00
44934;BME280;30667;43.614;1.442;2023-02-02T03:17:48;101598.13;;;4.17;100.00
44934;BME280;30667;43.614;1.442;2023-02-02T03:20:15;101594.56;;;4.10;100.00
44934;BME280;30667;43.614;1.442;2023-02-02T03:22:40;101592.94;;;4.09;100.00
44934;BME280;30667;43.614;1.442;2023-02-02T03:25:06;101600.50;;;4.05;100.00
44934;BME280;30667;43.614;1.442;2023-02-02T03:27:38;101598.28;;;4.09;100.00
44934;BME280;30667;43.614;1.442;2023-02-02T03:30:05;101601.53;;;4.04;100.00
44934;BME280;30667;43.614;1.442;2023-02-02T03:32:32;101599.22;;;3.94;100.00
44934;BME280;30667;43.614;1.442;2023-02-02T03:34:58;101605.78;;;3.92;100.00
44934;BME280;30667;43.614;1.442;2023-02-02T03:37:23;101599.22;;;3.94;100.00
44934;BME280;30667;43.614;1.442;2023-02-02T03:39:49;101602.47;;;3.90;100.00
44934;BME280;30667;43.614;1.442;2023-02-02T03:42:14;101602.66;;;3.88;100.00
44934;BME280;30667;43.614;1.442;2023-02-02T03:44:39;101593.34;;;3.84;100.00
44934;BME280;30667;43.614;1.442;2023-02-02T03:47:05;101599.75;;;3.83;100.00
44934;BME280;30667;43.614;1.442;2023-02-02T03:49:30;101597.69;;;3.85;100.00
44934;BME280;30667;43.614;1.442;2023-02-02T03:51:56;101595.84;;;3.86;100.00
44934;BME280;30667;43.614;1.442;2023-02-02T03:54:21;101603.63;;;3.80;100.00
44934;BME280;30667;43.614;1.442;2023-02-02T03:56:47;101605.09;;;3.83;100.00
44934;BME280;30667;43.614;1.442;2023-02-02T03:59:12;101597.88;;;3.84;100.00
44934;BME280;30667;43.614;1.442;2023-02-02T04:01:38;101603.28;;;3.90;100.00
44934;BME280;30667;43.614;1.442;2023-02-02T04:04:03;101600.63;;;3.90;100.00
44934;BME280;30667;43.614;1.442;2023-02-02T04:06:28;101609.28;;;3.92;100.00
44934;BME280;30667;43.614;1.442;2023-02-02T04:08:54;101612.13;;;3.91;100.00
44934;BME280;30667;43.614;1.442;2023-02-02T04:11:19;101609.47;;;3.91;100.00
44934;BME280;30667;43.614;1.442;2023-02-02T04:13:45;101612.59;;;3.94;100.00
44934;BME280;30667;43.614;1.442;2023-02-02T04:16:11;101612.13;;;3.91;100.00
44934;BME280;30667;43.614;1.442;2023-02-02T04:18:36;101616.34;;;4.00;100.00
44934;BME280;30667;43.614;1.442;2023-02-02T04:21:03;101621.66;;;3.93;100.00
44934;BME280;30667;43.614;1.442;2023-02-02T04:23:29;101622.47;;;3.94;100.00
44934;BME280;30667;43.614;1.442;2023-02-02T04:25:54;101622.47;;;3.94;100.00
44934;BME280;30667;43.614;1.442;2023-02-02T04:28:20;101626.38;;;3.91;100.00
44934;BME280;30667;43.614;1.442;2023-02-02T04:30:46;101636.44;;;3.89;100.00
44934;BME280;30667;43.614;1.442;2023-02-02T04:33:12;101638.81;;;3.99;100.00
44934;BME280;30667;43.614;1.442;2023-02-02T04:35:37;101637.75;;;4.00;100.00
44934;BME280;30667;43.614;1.442;2023-02-02T04:38:02;101636.06;;;3.92;100.00
44934;BME280;30667;43.614;1.442;2023-02-02T04:40:28;101638.16;;;3.97;100.00
44934;BME280;30667;43.614;1.442;2023-02-02T04:42:53;101642.72;;;4.03;100.00
44934;BME280;30667;43.614;1.442;2023-02-02T04:45:19;101635.50;;;4.04;100.00
44934;BME280;30667;43.614;1.442;2023-02-02T04:47:44;101648.28;;;4.02;100.00
44934;BME280;30667;43.614;1.442;2023-02-02T04:50:10;101652.25;;;4.06;100.00
44934;BME280;30667;43.614;1.442;2023-02-02T04:52:36;101648.91;;;4.04;100.00
44934;BME280;30667;43.614;1.442;2023-02-02T04:55:02;101648.78;;;4.12;100.00
44934;BME280;30667;43.614;1.442;2023-02-02T04:57:27;101642.16;;;4.08;100.00
44934;BME280;30667;43.614;1.442;2023-02-02T04:59:53;101649.19;;;4.09;100.00
44934;BME280;30667;43.614;1.442;2023-02-02T05:02:18;101652.25;;;4.06;100.00
44934;BME280;30667;43.614;1.442;2023-02-02T05:04:43;101646.94;;;4.12;100.00
44934;BME280;30667;43.614;1.442;2023-02-02T05:07:10;101644.00;;;4.07;100.00
44934;BME280;30667;43.614;1.442;2023-02-02T05:09:35;101656.13;;;4.03;100.00
44934;BME280;30667;43.614;1.442;2023-02-02T05:12:00;101640.88;;;4.04;100.00
44934;BME280;30667;43.614;1.442;2023-02-02T05:14:26;101645.56;;;3.95;100.00
44934;BME280;30667;43.614;1.442;2023-02-02T05:16:51;101650.97;;;4.02;100.00
44934;BME280;30667;43.614;1.442;2023-02-02T05:19:17;101647.06;;;4.04;100.00
44934;BME280;30667;43.614;1.442;2023-02-02T05:21:43;101647.06;;;4.04;100.00
44934;BME280;30667;43.614;1.442;2023-02-02T05:24:10;101655.94;;;4.05;100.00
44934;BME280;30667;43.614;1.442;2023-02-02T05:26:36;101656.94;;;4.04;100.00
44934;BME280;30667;43.614;1.442;2023-02-02T05:29:01;101652.81;;;4.01;100.00
44934;BME280;30667;43.614;1.442;2023-02-02T05:31:27;101649.56;;;4.06;100.00
44934;BME280;30667;43.614;1.442;2023-02-02T05:33:53;101652.00;;;4.00;100.00
44934;BME280;30667;43.614;1.442;2023-02-02T05:36:18;101645.59;;;4.02;100.00
44934;BME280;30667;43.614;1.442;2023-02-02T05:38:43;101646.84;;;3.99;100.00
44934;BME280;30667;43.614;1.442;2023-02-02T05:41:09;101648.66;;;3.98;100.00
44934;BME280;30667;43.614;1.442;2023-02-02T05:43:34;101643.97;;;4.00;100.00
44934;BME280;30667;43.614;1.442;2023-02-02T05:46:00;101646.38;;;3.95;100.00
44934;BME280;30667;43.614;1.442;2023-02-02T05:48:25;101648.44;;;3.93;100.00
44934;BME280;30667;43.614;1.442;2023-02-02T05:51:33;101650.66;;;3.90;100.00
44934;BME280;30667;43.614;1.442;2023-02-02T05:53:59;101656.97;;;3.82;100.00
44934;BME280;30667;43.614;1.442;2023-02-02T05:56:24;101658.84;;;3.81;100.00
44934;BME280;30667;43.614;1.442;2023-02-02T05:58:50;101666.41;;;3.78;100.00
44934;BME280;30667;43.614;1.442;2023-02-02T06:01:17;101661.25;;;3.76;100.00
44934;BME280;30667;43.614;1.442;2023-02-02T06:03:43;101659.41;;;3.77;100.00
44934;BME280;30667;43.614;1.442;2023-02-02T06:06:08;101664.56;;;3.78;100.00
44934;BME280;30667;43.614;1.442;2023-02-02T06:08:34;101666.03;;;3.81;100.00
44934;BME280;30667;43.614;1.442;2023-02-02T06:11:08;101667.31;;;3.85;100.00
44934;BME280;30667;43.614;1.442;2023-02-02T06:13:33;101673.81;;;3.76;100.00
44934;BME280;30667;43.614;1.442;2023-02-02T06:15:59;101676.69;;;3.74;100.00
44934;BME280;30667;43.614;1.442;2023-02-02T06:18:25;101677.00;;;3.64;100.00
44934;BME280;30667;43.614;1.442;2023-02-02T06:20:56;101683.91;;;3.59;100.00
44934;BME280;30667;43.614;1.442;2023-02-02T06:23:21;101678.47;;;3.67;100.00
44934;BME280;30667;43.614;1.442;2023-02-02T06:25:47;101692.03;;;3.66;100.00
44934;BME280;30667;43.614;1.442;2023-02-02T06:28:12;101688.16;;;3.68;100.00
44934;BME280;30667;43.614;1.442;2023-02-02T06:30:37;101690.38;;;3.64;100.00
44934;BME280;30667;43.614;1.442;2023-02-02T06:33:03;101691.38;;;3.63;100.00
44934;BME280;30667;43.614;1.442;2023-02-02T06:35:28;101692.03;;;3.66;100.00
44934;BME280;30667;43.614;1.442;2023-02-02T06:37:54;101685.97;;;3.57;100.00
44934;BME280;30667;43.614;1.442;2023-02-02T06:40:19;101695.84;;;3.56;100.00
44934;BME280;30667;43.614;1.442;2023-02-02T06:42:45;101697.44;;;3.51;100.00
44934;BME280;30667;43.614;1.442;2023-02-02T06:45:10;101691.63;;;3.47;100.00
44934;BME280;30667;43.614;1.442;2023-02-02T06:47:36;101702.53;;;3.45;100.00
44934;BME280;30667;43.614;1.442;2023-02-02T06:50:02;101701.22;;;3.41;100.00
44934;BME280;30667;43.614;1.442;2023-02-02T06:52:27;101699.47;;;3.49;100.00
44934;BME280;30667;43.614;1.442;2023-02-02T06:54:53;101701.53;;;3.47;100.00
44934;BME280;30667;43.614;1.442;2023-02-02T06:57:18;101695.31;;;3.46;100.00
44934;BME280;30667;43.614;1.442;2023-02-02T06:59:43;101697.38;;;3.44;100.00
44934;BME280;30667;43.614;1.442;2023-02-02T07:02:12;101702.28;;;3.40;100.00
44934;BME280;30667;43.614;1.442;2023-02-02T07:04:38;101697.97;;;3.24;100.00
44934;BME280;30667;43.614;1.442;2023-02-02T07:07:04;101703.38;;;3.31;100.00
44934;BME280;30667;43.614;1.442;2023-02-02T07:09:32;101702.84;;;3.36;100.00
44934;BME280;30667;43.614;1.442;2023-02-02T07:11:58;101695.63;;;3.36;100.00
44934;BME280;30667;43.614;1.442;2023-02-02T07:14:23;101700.41;;;3.41;100.00
44934;BME280;30667;43.614;1.442;2023-02-02T07:16:49;101705.75;;;3.41;100.00
44934;BME280;30667;43.614;1.442;2023-02-02T07:19:14;101703.47;;;3.38;100.00
44934;BME280;30667;43.614;1.442;2023-02-02T07:21:40;101704.88;;;3.34;100.00
44934;BME280;30667;43.614;1.442;2023-02-02T07:24:06;101709.84;;;3.37;100.00
44934;BME280;30667;43.614;1.442;2023-02-02T07:26:33;101712.78;;;3.42;100.00
44934;BME280;30667;43.614;1.442;2023-02-02T07:28:59;101713.03;;;3.47;100.00
44934;BME280;30667;43.614;1.442;2023-02-02T07:31:25;101718.13;;;3.42;100.00
44934;BME280;30667;43.614;1.442;2023-02-02T07:33:52;101715.09;;;3.45;100.00
44934;BME280;30667;43.614;1.442;2023-02-02T07:36:19;101723.94;;;3.45;100.00
44934;BME280;30667;43.614;1.442;2023-02-02T07:38:47;101725.78;;;3.45;100.00
44934;BME280;30667;43.614;1.442;2023-02-02T07:41:13;101731.13;;;3.45;100.00
44934;BME280;30667;43.614;1.442;2023-02-02T07:43:39;101731.31;;;3.43;100.00
44934;BME280;30667;43.614;1.442;2023-02-02T07:46:06;101730.97;;;3.47;100.00
44934;BME280;30667;43.614;1.442;2023-02-02T07:48:34;101737.88;;;3.41;100.00
44934;BME280;30667;43.614;1.442;2023-02-02T07:51:01;101741.84;;;3.45;100.00
44934;BME280;30667;43.614;1.442;2023-02-02T07:53:27;101749.75;;;3.53;100.00
44934;BME280;30667;43.614;1.442;2023-02-02T07:55:53;101739.69;;;3.55;100.00
44934;BME280;30667;43.614;1.442;2023-02-02T07:58:18;101745.22;;;3.54;100.00
44934;BME280;30667;43.614;1.442;2023-02-02T08:00:44;101750.22;;;3.57;100.00
44934;BME280;30667;43.614;1.442;2023-02-02T08:03:12;101746.34;;;3.59;100.00
44934;BME280;30667;43.614;1.442;2023-02-02T08:05:38;101744.91;;;3.63;100.00
44934;BME280;30667;43.614;1.442;2023-02-02T08:08:03;101747.41;;;3.65;100.00
44934;BME280;30667;43.614;1.442;2023-02-02T08:10:29;101737.81;;;3.71;100.00
44934;BME280;30667;43.614;1.442;2023-02-02T08:12:54;101742.34;;;3.70;100.00
44934;BME280;30667;43.614;1.442;2023-02-02T08:15:20;101740.69;;;3.69;100.00
44934;BME280;30667;43.614;1.442;2023-02-02T08:17:45;101745.28;;;3.75;100.00
44934;BME280;30667;43.614;1.442;2023-02-02T08:20:14;101745.09;;;3.77;100.00
44934;BME280;30667;43.614;1.442;2023-02-02T08:22:40;101752.75;;;3.80;100.00
44934;BME280;30667;43.614;1.442;2023-02-02T08:25:05;101753.44;;;3.89;100.00
44934;BME280;30667;43.614;1.442;2023-02-02T08:27:31;101754.34;;;3.96;100.00
44934;BME280;30667;43.614;1.442;2023-02-02T08:29:56;101752.09;;;3.99;100.00
44934;BME280;30667;43.614;1.442;2023-02-02T08:32:22;101756.50;;;4.07;100.00
44934;BME280;30667;43.614;1.442;2023-02-02T08:34:48;101746.44;;;4.09;100.00
44934;BME280;30667;43.614;1.442;2023-02-02T08:37:13;101753.25;;;4.12;100.00
44934;BME280;30667;43.614;1.442;2023-02-02T08:39:39;101752.03;;;4.14;100.00
44934;BME280;30667;43.614;1.442;2023-02-02T08:42:04;101752.28;;;4.19;100.00
44934;BME280;30667;43.614;1.442;2023-02-02T08:44:29;101758.09;;;4.23;100.00
44934;BME280;30667;43.614;1.442;2023-02-02T08:46:55;101766.19;;;4.30;100.00
44934;BME280;30667;43.614;1.442;2023-02-02T08:49:20;101766.25;;;4.36;100.00
44934;BME280;30667;43.614;1.442;2023-02-02T08:51:46;101768.72;;;4.38;100.00
44934;BME280;30667;43.614;1.442;2023-02-02T08:54:11;101773.09;;;4.39;100.00
44934;BME280;30667;43.614;1.442;2023-02-02T08:56:37;101770.84;;;4.43;100.00
44934;BME280;30667;43.614;1.442;2023-02-02T08:59:02;101773.75;;;4.48;100.00
44934;BME280;30667;43.614;1.442;2023-02-02T09:01:31;101776.06;;;4.51;100.00
44934;BME280;30667;43.614;1.442;2023-02-02T09:04:07;101788.69;;;4.57;100.00
44934;BME280;30667;43.614;1.442;2023-02-02T09:06:37;101780.25;;;4.60;100.00
44934;BME280;30667;43.614;1.442;2023-02-02T09:09:06;101784.25;;;4.71;100.00
44934;BME280;30667;43.614;1.442;2023-02-02T09:11:31;101785.97;;;4.79;100.00
44934;BME280;30667;43.614;1.442;2023-02-02T09:13:58;101785.16;;;4.85;100.00
44934;BME280;30667;43.614;1.442;2023-02-02T09:16:25;101790.22;;;4.95;100.00
44934;BME280;30667;43.614;1.442;2023-02-02T09:18:51;101791.06;;;5.02;100.00
44934;BME280;30667;43.614;1.442;2023-02-02T09:21:18;101791.75;;;5.11;100.00
44934;BME280;30667;43.614;1.442;2023-02-02T09:23:45;101794.47;;;5.17;100.00
44934;BME280;30667;43.614;1.442;2023-02-02T09:26:17;101788.91;;;5.19;100.00
44934;BME280;30667;43.614;1.442;2023-02-02T09:28:48;101802.56;;;5.24;100.00
44934;BME280;30667;43.614;1.442;2023-02-02T09:31:14;101790.63;;;5.33;100.00
44934;BME280;30667;43.614;1.442;2023-02-02T09:33:40;101796.63;;;5.35;100.00
44934;BME280;30667;43.614;1.442;2023-02-02T09:38:33;101804.09;;;5.46;100.00
44934;BME280;30667;43.614;1.442;2023-02-02T09:40:59;101804.34;;;5.52;100.00
44934;BME280;30667;43.614;1.442;2023-02-02T09:46:26;101806.63;;;5.61;100.00
44934;BME280;30667;43.614;1.442;2023-02-02T09:48:59;101797.38;;;5.64;100.00
44934;BME280;30667;43.614;1.442;2023-02-02T09:51:30;101797.16;;;5.66;100.00
44934;BME280;30667;43.614;1.442;2023-02-02T09:54:26;101808.78;;;5.73;100.00
44934;BME280;30667;43.614;1.442;2023-02-02T09:56:54;101809.41;;;5.81;100.00
44934;BME280;30667;43.614;1.442;2023-02-02T09:59:32;101812.72;;;5.90;100.00
44934;BME280;30667;43.614;1.442;2023-02-02T10:02:09;101810.50;;;5.94;100.00
44934;BME280;30667;43.614;1.442;2023-02-02T10:04:39;101810.94;;;5.97;100.00
44934;BME280;30667;43.614;1.442;2023-02-02T10:07:26;101812.81;;;6.10;100.00
44934;BME280;30667;43.614;1.442;2023-02-02T10:10:03;101812.22;;;6.15;100.00
44934;BME280;30667;43.614;1.442;2023-02-02T10:18:10;101817.84;;;6.40;100.00
44934;BME280;30667;43.614;1.442;2023-02-02T10:23:28;101814.75;;;6.50;100.00
44934;BME280;30667;43.614;1.442;2023-02-02T10:26:15;101818.25;;;6.57;100.00
44934;BME280;30667;43.614;1.442;2023-02-02T10:31:42;101816.00;;;6.67;100.00
44934;BME280;30667;43.614;1.442;2023-02-02T10:39:24;101806.88;;;6.82;100.00
44934;BME280;30667;43.614;1.442;2023-02-02T10:45:14;101807.28;;;6.92;100.00
44934;BME280;30667;43.614;1.442;2023-02-02T10:47:42;101799.19;;;6.99;100.00
44934;BME280;30667;43.614;1.442;2023-02-02T10:50:19;101804.78;;;7.11;100.00
44934;BME280;30667;43.614;1.442;2023-02-02T10:52:48;101802.44;;;7.21;100.00
44934;BME280;30667;43.614;1.442;2023-02-02T11:03:09;101799.97;;;7.19;100.00
44934;BME280;30667;43.614;1.442;2023-02-02T11:05:36;101796.84;;;7.22;100.00
44934;BME280;30667;43.614;1.442;2023-02-02T11:08:26;101787.16;;;7.21;100.00
44934;BME280;30667;43.614;1.442;2023-02-02T11:10:55;101781.94;;;7.26;100.00
44934;BME280;30667;43.614;1.442;2023-02-02T11:18:41;101779.63;;;7.37;100.00
44934;BME280;30667;43.614;1.442;2023-02-02T11:21:27;101781.88;;;7.46;100.00
44934;BME280;30667;43.614;1.442;2023-02-02T11:23:55;101771.50;;;7.50;100.00
44934;BME280;30667;43.614;1.442;2023-02-02T11:26:26;101770.66;;;7.56;100.00
44934;BME280;30667;43.614;1.442;2023-02-02T11:28:53;101776.25;;;7.55;100.00
44934;BME280;30667;43.614;1.442;2023-02-02T11:31:33;101766.69;;;7.59;100.00
44934;BME280;30667;43.614;1.442;2023-02-02T11:36:38;101765.84;;;7.65;100.00
44934;BME280;30667;43.614;1.442;2023-02-02T11:39:24;101766.47;;;7.60;100.00
44934;BME280;30667;43.614;1.442;2023-02-02T11:41:51;101773.75;;;7.60;100.00
44934;BME280;30667;43.614;1.442;2023-02-02T11:44:27;101760.28;;;7.60;100.00
44934;BME280;30667;43.614;1.442;2023-02-02T11:46:53;101756.47;;;7.74;100.00
44934;BME280;30667;43.614;1.442;2023-02-02T11:49:22;101750.47;;;7.72;100.00
44934;BME280;30667;43.614;1.442;2023-02-02T11:51:56;101752.72;;;7.75;100.00
44934;BME280;30667;43.614;1.442;2023-02-02T11:54:28;101744.41;;;7.84;100.00
44934;BME280;30667;43.614;1.442;2023-02-02T11:56:56;101745.38;;;7.89;100.00
44934;BME280;30667;43.614;1.442;2023-02-02T11:59:30;101727.88;;;7.73;99.96
44934;BME280;30667;43.614;1.442;2023-02-02T12:04:44;101728.25;;;7.77;100.00
44934;BME280;30667;43.614;1.442;2023-02-02T12:07:31;101726.25;;;7.97;100.00
44934;BME280;30667;43.614;1.442;2023-02-02T12:10:00;101720.31;;;7.89;98.59
44934;BME280;30667;43.614;1.442;2023-02-02T12:15:23;101708.09;;;7.86;97.46
44934;BME280;30667;43.614;1.442;2023-02-02T12:17:59;101704.38;;;7.87;98.75
44934;BME280;30667;43.614;1.442;2023-02-02T12:23:30;101700.81;;;8.18;95.29
44934;BME280;30667;43.614;1.442;2023-02-02T12:31:58;101688.81;;;8.14;92.61
44934;BME280;30667;43.614;1.442;2023-02-02T12:37:28;101679.63;;;8.22;91.48
44934;BME280;30667;43.614;1.442;2023-02-02T12:43:04;101673.06;;;8.36;88.00
44934;BME280;30667;43.614;1.442;2023-02-02T12:45:41;101676.28;;;8.27;89.47
44934;BME280;30667;43.614;1.442;2023-02-02T12:56:25;101665.13;;;8.42;88.14
44934;BME280;30667;43.614;1.442;2023-02-02T13:02:04;101662.06;;;8.38;89.00
44934;BME280;30667;43.614;1.442;2023-02-02T13:08:09;101653.31;;;8.43;89.22
44934;BME280;30667;43.614;1.442;2023-02-02T13:12:41;101641.66;;;8.49;91.03
44934;BME280;30667;43.614;1.442;2023-02-02T13:15:11;101651.38;;;8.50;91.36
44934;BME280;30667;43.614;1.442;2023-02-02T13:22:58;101636.31;;;8.61;89.81
44934;BME280;30667;43.614;1.442;2023-02-02T13:25:29;101632.03;;;8.53;89.40
44934;BME280;30667;43.614;1.442;2023-02-02T13:27:58;101630.78;;;8.56;90.03
44934;BME280;30667;43.614;1.442;2023-02-02T13:32:58;101615.88;;;8.71;92.01
44934;BME280;30667;43.614;1.442;2023-02-02T13:35:41;101620.81;;;8.75;91.22
44934;BME280;30667;43.614;1.442;2023-02-02T13:38:24;101624.34;;;8.75;90.82
44934;BME280;30667;43.614;1.442;2023-02-02T13:40:53;101617.22;;;8.62;90.59
44934;BME280;30667;43.614;1.442;2023-02-02T13:43:39;101612.72;;;8.56;90.10
44934;BME280;30667;43.614;1.442;2023-02-02T13:49:30;101624.56;;;8.73;91.38
44934;BME280;30667;43.614;1.442;2023-02-02T14:00:29;101609.13;;;8.81;90.25
44934;BME280;30667;43.614;1.442;2023-02-02T14:03:19;101615.94;;;8.83;90.39
44934;BME280;30667;43.614;1.442;2023-02-02T14:06:03;101621.47;;;8.88;90.82
44934;BME280;30667;43.614;1.442;2023-02-02T14:08:30;101621.19;;;8.97;92.13
44934;BME280;30667;43.614;1.442;2023-02-02T14:10:58;101627.03;;;8.94;91.28
44934;BME280;30667;43.614;1.442;2023-02-02T14:13:28;101609.97;;;8.93;91.60
44934;BME280;30667;43.614;1.442;2023-02-02T14:18:57;101631.06;;;8.84;93.22
44934;BME280;30667;43.614;1.442;2023-02-02T14:26:57;101625.69;;;8.84;94.30
44934;BME280;30667;43.614;1.442;2023-02-02T14:31:55;101625.09;;;8.82;94.82
44934;BME280;30667;43.614;1.442;2023-02-02T14:39:38;101623.88;;;8.97;95.96
44934;BME280;30667;43.614;1.442;2023-02-02T14:42:25;101619.59;;;8.89;95.42
44934;BME280;30667;43.614;1.442;2023-02-02T14:47:47;101629.56;;;8.88;97.46
44934;BME280;30667;43.614;1.442;2023-02-02T14:50:23;101629.88;;;8.99;97.64
44934;BME280;30667;43.614;1.442;2023-02-02T14:56:03;101621.47;;;8.88;98.32
44934;BME280;30667;43.614;1.442;2023-02-02T14:58:33;101625.81;;;8.89;97.62
44934;BME280;30667;43.614;1.442;2023-02-02T15:01:12;101627.84;;;8.94;98.52
44934;BME280;30667;43.614;1.442;2023-02-02T15:03:56;101623.72;;;8.91;97.58
44934;BME280;30667;43.614;1.442;2023-02-02T15:22:35;101637.44;;;8.90;98.16
44934;BME280;30667;43.614;1.442;2023-02-02T15:25:22;101636.16;;;8.93;98.65
44934;BME280;30667;43.614;1.442;2023-02-02T15:27:55;101634.72;;;8.90;98.26
44934;BME280;30667;43.614;1.442;2023-02-02T15:30:23;101631.22;;;8.89;98.09
44934;BME280;30667;43.614;1.442;2023-02-02T15:32:51;101637.22;;;8.91;99.46
44934;BME280;30667;43.614;1.442;2023-02-02T15:35:22;101636.16;;;8.93;99.45
44934;BME280;30667;43.614;1.442;2023-02-02T15:37:56;101639.69;;;8.93;99.03
44934;BME280;30667;43.614;1.442;2023-02-02T15:40:24;101635.50;;;8.97;98.81
44934;BME280;30667;43.614;1.442;2023-02-02T15:43:05;101636.88;;;9.00;98.66
44934;BME280;30667;43.614;1.442;2023-02-02T15:45:53;101635.63;;;9.02;99.22
44934;BME280;30667;43.614;1.442;2023-02-02T15:50:47;101636.00;;;9.06;98.20